sensor_id;sensor_type;location;lat;lon;timestamp;temperature;humidity
19966;DHT22;10144;50.874;4.762;2022-07-04T00:02:22;17.10;99.90
19966;DHT22;10144;50.874;4.762;2022-07-04T00:04:48;17.10;99.90
19966;DHT22;10144;50.874;4.762;2022-07-04T00:07:16;17.00;99.90
19966;DHT22;10144;50.874;4.762;2022-07-04T00:09:45;17.00;99.90
19966;DHT22;10144;50.874;4.762;2022-07-04T00:12:10;17.00;99.90
19966;DHT22;10144;50.874;4.762;2022-07-04T00:14:39;16.90;99.90
19966;DHT22;10144;50.874;4.762;2022-07-04T00:17:05;16.90;99.90
19966;DHT22;10144;50.874;4.762;2022-07-04T00:19:31;16.80;99.90
19966;DHT22;10144;50.874;4.762;2022-07-04T00:22:03;16.70;99.90
19966;DHT22;10144;50.874;4.762;2022-07-04T00:24:31;16.70;99.90
19966;DHT22;10144;50.874;4.762;2022-07-04T00:26:57;16.70;99.90
19966;DHT22;10144;50.874;4.762;2022-07-04T00:29:23;16.70;99.90
19966;DHT22;10144;50.874;4.762;2022-07-04T00:31:50;16.60;99.90
19966;DHT22;10144;50.874;4.762;2022-07-04T00:34:15;16.60;99.90
19966;DHT22;10144;50.874;4.762;2022-07-04T00:36:43;16.50;99.90
19966;DHT22;10144;50.874;4.762;2022-07-04T00:39:09;16.50;99.90
19966;DHT22;10144;50.874;4.762;2022-07-04T00:41:43;16.60;99.90
19966;DHT22;10144;50.874;4.762;2022-07-04T00:44:12;16.50;99.90
19966;DHT22;10144;50.874;4.762;2022-07-04T00:46:41;16.50;99.90
19966;DHT22;10144;50.874;4.762;2022-07-04T00:49:10;16.50;99.90
19966;DHT22;10144;50.874;4.762;2022-07-04T00:51:46;16.40;99.90
19966;DHT22;10144;50.874;4.762;2022-07-04T00:54:18;16.40;99.90
19966;DHT22;10144;50.874;4.762;2022-07-04T00:56:49;16.30;99.90
19966;DHT22;10144;50.874;4.762;2022-07-04T00:59:18;16.30;99.90
19966;DHT22;10144;50.874;4.762;2022-07-04T01:01:47;16.30;99.90
19966;DHT22;10144;50.874;4.762;2022-07-04T01:04:19;16.20;99.90
19966;DHT22;10144;50.874;4.762;2022-07-04T01:06:45;16.10;99.90
19966;DHT22;10144;50.874;4.762;2022-07-04T01:09:17;16.10;99.90
19966;DHT22;10144;50.874;4.762;2022-07-04T01:11:49;16.00;99.90
19966;DHT22;10144;50.874;4.762;2022-07-04T01:14:18;15.90;99.90
19966;DHT22;10144;50.874;4.762;2022-07-04T01:16:50;15.80;99.90
19966;DHT22;10144;50.874;4.762;2022-07-04T01:19:18;15.70;99.90
19966;DHT22;10144;50.874;4.762;2022-07-04T01:21:46;15.60;99.90
19966;DHT22;10144;50.874;4.762;2022-07-04T01:24:18;15.60;99.90
19966;DHT22;10144;50.874;4.762;2022-07-04T01:26:47;15.50;99.90
19966;DHT22;10144;50.874;4.762;2022-07-04T01:29:16;15.40;99.90
19966;DHT22;10144;50.874;4.762;2022-07-04T01:31:46;15.30;99.90
19966;DHT22;10144;50.874;4.762;2022-07-04T01:34:14;15.30;99.90
19966;DHT22;10144;50.874;4.762;2022-07-04T01:36:43;15.30;99.90
19966;DHT22;10144;50.874;4.762;2022-07-04T01:39:11;15.30;99.90
19966;DHT22;10144;50.874;4.762;2022-07-04T01:41:39;15.30;99.90
19966;DHT22;10144;50.874;4.762;2022-07-04T01:44:11;15.30;99.90
19966;DHT22;10144;50.874;4.762;2022-07-04T01:46:40;15.30;99.90
19966;DHT22;10144;50.874;4.762;2022-07-04T01:49:13;15.30;99.90
19966;DHT22;10144;50.874;4.762;2022-07-04T01:51:47;15.30;99.90
19966;DHT22;10144;50.874;4.762;2022-07-04T01:54:26;15.30;99.90
19966;DHT22;10144;50.874;4.762;2022-07-04T01:56:52;15.30;99.90
19966;DHT22;10144;50.874;4.762;2022-07-04T01:59:21;15.20;99.90
19966;DHT22;10144;50.874;4.762;2022-07-04T02:02:09;15.10;99.90
19966;DHT22;10144;50.874;4.762;2022-07-04T02:04:38;14.80;99.90
19966;DHT22;10144;50.874;4.762;2022-07-04T02:07:07;14.60;99.90
19966;DHT22;10144;50.874;4.762;2022-07-04T02:09:38;14.60;99.90
19966;DHT22;10144;50.874;4.762;2022-07-04T02:12:07;14.60;99.90
19966;DHT22;10144;50.874;4.762;2022-07-04T02:14:55;14.50;99.90
19966;DHT22;10144;50.874;4.762;2022-07-04T02:17:24;14.50;99.90
19966;DHT22;10144;50.874;4.762;2022-07-04T02:19:50;14.60;99.90
19966;DHT22;10144;50.874;4.762;2022-07-04T02:22:22;14.60;99.90
19966;DHT22;10144;50.874;4.762;2022-07-04T02:24:51;14.60;99.90
19966;DHT22;10144;50.874;4.762;2022-07-04T02:27:18;14.60;99.90
19966;DHT22;10144;50.874;4.762;2022-07-04T02:29:47;14.50;99.90
19966;DHT22;10144;50.874;4.762;2022-07-04T02:32:19;14.30;99.90
19966;DHT22;10144;50.874;4.762;2022-07-04T02:34:47;14.10;99.90
19966;DHT22;10144;50.874;4.762;2022-07-04T02:37:16;14.10;99.90
19966;DHT22;10144;50.874;4.762;2022-07-04T02:39:43;13.90;99.90
19966;DHT22;10144;50.874;4.762;2022-07-04T02:42:14;13.80;99.90
19966;DHT22;10144;50.874;4.762;2022-07-04T02:44:43;13.70;99.90
19966;DHT22;10144;50.874;4.762;2022-07-04T02:47:14;13.50;99.90
19966;DHT22;10144;50.874;4.762;2022-07-04T02:49:42;13.50;99.90
19966;DHT22;10144;50.874;4.762;2022-07-04T02:52:24;13.60;99.90
19966;DHT22;10144;50.874;4.762;2022-07-04T02:54:52;13.60;99.90
19966;DHT22;10144;50.874;4.762;2022-07-04T02:57:21;13.60;99.90
19966;DHT22;10144;50.874;4.762;2022-07-04T02:59:50;13.60;99.90
19966;DHT22;10144;50.874;4.762;2022-07-04T03:02:19;13.70;99.90
19966;DHT22;10144;50.874;4.762;2022-07-04T03:04:48;13.70;99.90
19966;DHT22;10144;50.874;4.762;2022-07-04T03:07:17;13.80;99.90
19966;DHT22;10144;50.874;4.762;2022-07-04T03:09:44;13.70;99.90
19966;DHT22;10144;50.874;4.762;2022-07-04T03:12:12;13.80;99.90
19966;DHT22;10144;50.874;4.762;2022-07-04T03:14:44;13.90;99.90
19966;DHT22;10144;50.874;4.762;2022-07-04T03:17:11;13.80;99.90
19966;DHT22;10144;50.874;4.762;2022-07-04T03:19:46;13.80;99.90
19966;DHT22;10144;50.874;4.762;2022-07-04T03:22:15;13.80;99.90
19966;DHT22;10144;50.874;4.762;2022-07-04T03:24:44;13.60;99.90
19966;DHT22;10144;50.874;4.762;2022-07-04T03:27:10;13.60;99.90
19966;DHT22;10144;50.874;4.762;2022-07-04T03:29:39;13.60;99.90
19966;DHT22;10144;50.874;4.762;2022-07-04T03:32:11;13.70;99.90
19966;DHT22;10144;50.874;4.762;2022-07-04T03:34:38;13.80;99.90
19966;DHT22;10144;50.874;4.762;2022-07-04T03:37:05;13.80;99.90
19966;DHT22;10144;50.874;4.762;2022-07-04T03:39:33;13.80;99.90
19966;DHT22;10144;50.874;4.762;2022-07-04T03:42:02;13.70;99.90
19966;DHT22;10144;50.874;4.762;2022-07-04T03:44:28;13.70;99.90
19966;DHT22;10144;50.874;4.762;2022-07-04T03:46:54;13.50;99.90
19966;DHT22;10144;50.874;4.762;2022-07-04T03:49:23;13.40;99.90
19966;DHT22;10144;50.874;4.762;2022-07-04T03:51:52;13.30;99.90
19966;DHT22;10144;50.874;4.762;2022-07-04T03:54:23;13.30;99.90
19966;DHT22;10144;50.874;4.762;2022-07-04T03:56:50;13.50;99.90
19966;DHT22;10144;50.874;4.762;2022-07-04T03:59:19;13.60;99.90
19966;DHT22;10144;50.874;4.762;2022-07-04T04:01:48;13.80;99.90
19966;DHT22;10144;50.874;4.762;2022-07-04T04:04:13;14.00;99.90
19966;DHT22;10144;50.874;4.762;2022-07-04T04:07:01;14.00;99.90
19966;DHT22;10144;50.874;4.762;2022-07-04T04:09:32;14.10;99.90
19966;DHT22;10144;50.874;4.762;2022-07-04T04:12:05;14.20;99.90
19966;DHT22;10144;50.874;4.762;2022-07-04T04:14:40;14.10;99.90
19966;DHT22;10144;50.874;4.762;2022-07-04T04:17:09;14.20;99.90
19966;DHT22;10144;50.874;4.762;2022-07-04T04:19:36;14.20;99.90
19966;DHT22;10144;50.874;4.762;2022-07-04T04:22:10;14.40;99.90
19966;DHT22;10144;50.874;4.762;2022-07-04T04:24:39;14.60;99.90
19966;DHT22;10144;50.874;4.762;2022-07-04T04:27:11;14.80;99.90
19966;DHT22;10144;50.874;4.762;2022-07-04T04:29:40;14.90;99.90
19966;DHT22;10144;50.874;4.762;2022-07-04T04:32:11;15.20;99.90
19966;DHT22;10144;50.874;4.762;2022-07-04T04:34:40;15.40;99.90
19966;DHT22;10144;50.874;4.762;2022-07-04T04:37:08;15.60;99.90
19966;DHT22;10144;50.874;4.762;2022-07-04T04:39:40;15.80;99.90
19966;DHT22;10144;50.874;4.762;2022-07-04T04:42:08;16.00;99.90
19966;DHT22;10144;50.874;4.762;2022-07-04T04:44:34;16.10;99.90
19966;DHT22;10144;50.874;4.762;2022-07-04T04:47:03;16.30;99.90
19966;DHT22;10144;50.874;4.762;2022-07-04T04:49:28;16.40;99.90
19966;DHT22;10144;50.874;4.762;2022-07-04T04:51:57;16.40;99.90
19966;DHT22;10144;50.874;4.762;2022-07-04T04:54:24;16.40;99.90
19966;DHT22;10144;50.874;4.762;2022-07-04T04:56:50;16.40;99.90
19966;DHT22;10144;50.874;4.762;2022-07-04T04:59:19;16.30;99.90
19966;DHT22;10144;50.874;4.762;2022-07-04T05:01:48;16.10;99.90
19966;DHT22;10144;50.874;4.762;2022-07-04T05:04:16;16.10;99.90
19966;DHT22;10144;50.874;4.762;2022-07-04T05:06:48;15.90;99.90
19966;DHT22;10144;50.874;4.762;2022-07-04T05:09:22;16.30;99.90
19966;DHT22;10144;50.874;4.762;2022-07-04T05:11:54;16.40;99.90
19966;DHT22;10144;50.874;4.762;2022-07-04T05:14:20;16.70;99.90
19966;DHT22;10144;50.874;4.762;2022-07-04T05:16:48;16.70;99.90
19966;DHT22;10144;50.874;4.762;2022-07-04T05:19:20;16.80;99.90
19966;DHT22;10144;50.874;4.762;2022-07-04T05:21:46;17.10;99.90
19966;DHT22;10144;50.874;4.762;2022-07-04T05:24:11;17.20;99.90
19966;DHT22;10144;50.874;4.762;2022-07-04T05:26:40;17.30;99.90
19966;DHT22;10144;50.874;4.762;2022-07-04T05:29:09;17.60;99.90
19966;DHT22;10144;50.874;4.762;2022-07-04T05:31:38;17.60;99.90
19966;DHT22;10144;50.874;4.762;2022-07-04T05:34:04;17.60;99.90
19966;DHT22;10144;50.874;4.762;2022-07-04T05:36:32;17.80;99.90
19966;DHT22;10144;50.874;4.762;2022-07-04T05:39:00;18.10;99.90
19966;DHT22;10144;50.874;4.762;2022-07-04T05:41:26;18.00;99.90
19966;DHT22;10144;50.874;4.762;2022-07-04T05:43:52;18.40;99.90
19966;DHT22;10144;50.874;4.762;2022-07-04T05:46:18;18.80;99.90
19966;DHT22;10144;50.874;4.762;2022-07-04T05:48:44;18.80;99.90
19966;DHT22;10144;50.874;4.762;2022-07-04T05:51:12;19.30;99.90
19966;DHT22;10144;50.874;4.762;2022-07-04T05:56:53;20.10;99.90
19966;DHT22;10144;50.874;4.762;2022-07-04T05:59:21;20.60;99.90
19966;DHT22;10144;50.874;4.762;2022-07-04T06:01:50;20.90;99.90
19966;DHT22;10144;50.874;4.762;2022-07-04T06:04:18;20.90;99.90
19966;DHT22;10144;50.874;4.762;2022-07-04T06:06:49;21.00;99.90
19966;DHT22;10144;50.874;4.762;2022-07-04T06:09:16;21.00;99.90
19966;DHT22;10144;50.874;4.762;2022-07-04T06:11:45;21.40;99.90
19966;DHT22;10144;50.874;4.762;2022-07-04T06:14:10;21.60;99.90
19966;DHT22;10144;50.874;4.762;2022-07-04T06:16:39;21.90;99.90
19966;DHT22;10144;50.874;4.762;2022-07-04T06:19:08;22.30;99.90
19966;DHT22;10144;50.874;4.762;2022-07-04T06:21:36;22.80;99.90
19966;DHT22;10144;50.874;4.762;2022-07-04T06:24:07;22.90;99.90
19966;DHT22;10144;50.874;4.762;2022-07-04T06:26:36;23.30;99.90
19966;DHT22;10144;50.874;4.762;2022-07-04T06:29:05;23.60;99.90
19966;DHT22;10144;50.874;4.762;2022-07-04T06:31:31;23.70;99.90
19966;DHT22;10144;50.874;4.762;2022-07-04T06:33:57;24.10;99.90
19966;DHT22;10144;50.874;4.762;2022-07-04T06:37:01;24.10;99.90
19966;DHT22;10144;50.874;4.762;2022-07-04T06:39:26;24.30;99.90
19966;DHT22;10144;50.874;4.762;2022-07-04T06:41:52;24.30;99.90
19966;DHT22;10144;50.874;4.762;2022-07-04T06:44:18;24.10;99.90
19966;DHT22;10144;50.874;4.762;2022-07-04T06:46:43;24.50;99.90
19966;DHT22;10144;50.874;4.762;2022-07-04T06:49:10;24.60;99.90
19966;DHT22;10144;50.874;4.762;2022-07-04T06:51:36;25.10;99.90
19966;DHT22;10144;50.874;4.762;2022-07-04T06:54:02;25.30;99.90
19966;DHT22;10144;50.874;4.762;2022-07-04T06:56:27;25.50;99.90
19966;DHT22;10144;50.874;4.762;2022-07-04T06:58:53;25.80;99.90
19966;DHT22;10144;50.874;4.762;2022-07-04T07:01:18;26.10;99.90
19966;DHT22;10144;50.874;4.762;2022-07-04T07:03:44;26.40;99.90
19966;DHT22;10144;50.874;4.762;2022-07-04T07:06:10;26.40;99.90
19966;DHT22;10144;50.874;4.762;2022-07-04T07:08:35;26.80;99.90
19966;DHT22;10144;50.874;4.762;2022-07-04T07:11:01;26.90;99.90
19966;DHT22;10144;50.874;4.762;2022-07-04T07:13:42;27.00;99.90
19966;DHT22;10144;50.874;4.762;2022-07-04T07:16:10;27.30;99.90
19966;DHT22;10144;50.874;4.762;2022-07-04T07:18:35;27.50;99.90
19966;DHT22;10144;50.874;4.762;2022-07-04T07:21:01;27.20;99.90
19966;DHT22;10144;50.874;4.762;2022-07-04T07:23:27;26.70;99.90
19966;DHT22;10144;50.874;4.762;2022-07-04T07:25:52;26.80;99.90
19966;DHT22;10144;50.874;4.762;2022-07-04T07:28:19;26.90;99.90
19966;DHT22;10144;50.874;4.762;2022-07-04T07:30:45;27.10;99.90
19966;DHT22;10144;50.874;4.762;2022-07-04T07:33:11;27.30;99.90
19966;DHT22;10144;50.874;4.762;2022-07-04T07:35:37;27.50;99.90
19966;DHT22;10144;50.874;4.762;2022-07-04T07:38:03;27.40;99.90
19966;DHT22;10144;50.874;4.762;2022-07-04T07:40:31;27.80;99.90
19966;DHT22;10144;50.874;4.762;2022-07-04T07:42:57;27.80;99.90
19966;DHT22;10144;50.874;4.762;2022-07-04T07:45:23;27.50;99.90
19966;DHT22;10144;50.874;4.762;2022-07-04T07:47:48;27.60;99.90
19966;DHT22;10144;50.874;4.762;2022-07-04T07:50:14;27.80;99.90
19966;DHT22;10144;50.874;4.762;2022-07-04T07:52:40;27.80;99.90
19966;DHT22;10144;50.874;4.762;2022-07-04T07:55:07;27.60;99.90
19966;DHT22;10144;50.874;4.762;2022-07-04T07:57:32;27.80;99.90
19966;DHT22;10144;50.874;4.762;2022-07-04T07:59:58;28.00;99.90
19966;DHT22;10144;50.874;4.762;2022-07-04T08:02:24;27.70;99.90
19966;DHT22;10144;50.874;4.762;2022-07-04T08:05:10;28.20;99.90
19966;DHT22;10144;50.874;4.762;2022-07-04T08:07:36;28.90;99.90
19966;DHT22;10144;50.874;4.762;2022-07-04T08:10:03;28.90;99.90
19966;DHT22;10144;50.874;4.762;2022-07-04T08:12:29;28.80;99.90
19966;DHT22;10144;50.874;4.762;2022-07-04T08:14:55;28.40;99.90
19966;DHT22;10144;50.874;4.762;2022-07-04T08:17:20;28.60;99.90
19966;DHT22;10144;50.874;4.762;2022-07-04T08:19:46;28.40;99.90
19966;DHT22;10144;50.874;4.762;2022-07-04T08:22:13;28.60;99.90
19966;DHT22;10144;50.874;4.762;2022-07-04T08:24:43;29.10;99.90
19966;DHT22;10144;50.874;4.762;2022-07-04T08:27:14;29.50;99.90
19966;DHT22;10144;50.874;4.762;2022-07-04T08:29:43;29.90;99.90
19966;DHT22;10144;50.874;4.762;2022-07-04T08:32:12;30.30;99.90
19966;DHT22;10144;50.874;4.762;2022-07-04T08:34:44;30.30;99.90
19966;DHT22;10144;50.874;4.762;2022-07-04T08:37:10;29.90;99.90
19966;DHT22;10144;50.874;4.762;2022-07-04T08:39:39;30.60;99.90
19966;DHT22;10144;50.874;4.762;2022-07-04T08:42:17;30.70;99.90
19966;DHT22;10144;50.874;4.762;2022-07-04T08:44:52;30.90;99.90
19966;DHT22;10144;50.874;4.762;2022-07-04T08:47:24;31.20;99.90
19966;DHT22;10144;50.874;4.762;2022-07-04T08:50:01;31.50;99.90
19966;DHT22;10144;50.874;4.762;2022-07-04T08:52:39;31.50;99.10
19966;DHT22;10144;50.874;4.762;2022-07-04T08:55:08;31.80;99.90
19966;DHT22;10144;50.874;4.762;2022-07-04T08:57:53;31.40;98.70
19966;DHT22;10144;50.874;4.762;2022-07-04T09:00:38;31.60;99.70
19966;DHT22;10144;50.874;4.762;2022-07-04T09:03:04;31.40;98.20
19966;DHT22;10144;50.874;4.762;2022-07-04T09:05:31;31.20;99.90
19966;DHT22;10144;50.874;4.762;2022-07-04T09:08:00;31.70;99.90
19966;DHT22;10144;50.874;4.762;2022-07-04T09:10:27;32.20;98.60
19966;DHT22;10144;50.874;4.762;2022-07-04T09:12:54;32.60;97.10
19966;DHT22;10144;50.874;4.762;2022-07-04T09:15:20;33.30;97.50
19966;DHT22;10144;50.874;4.762;2022-07-04T09:17:46;33.30;96.40
19966;DHT22;10144;50.874;4.762;2022-07-04T09:20:17;33.60;94.90
19966;DHT22;10144;50.874;4.762;2022-07-04T09:22:47;33.70;93.40
19966;DHT22;10144;50.874;4.762;2022-07-04T09:25:16;33.80;93.40
19966;DHT22;10144;50.874;4.762;2022-07-04T09:27:48;34.20;92.30
19966;DHT22;10144;50.874;4.762;2022-07-04T09:30:20;34.20;89.10
19966;DHT22;10144;50.874;4.762;2022-07-04T09:32:50;34.50;92.40
19966;DHT22;10144;50.874;4.762;2022-07-04T09:35:21;34.40;87.00
19966;DHT22;10144;50.874;4.762;2022-07-04T09:40:35;33.20;88.00
19966;DHT22;10144;50.874;4.762;2022-07-04T09:43:19;32.60;90.10
19966;DHT22;10144;50.874;4.762;2022-07-04T09:46:00;31.20;92.00
19966;DHT22;10144;50.874;4.762;2022-07-04T09:48:47;31.80;93.80
19966;DHT22;10144;50.874;4.762;2022-07-04T09:51:44;32.40;91.10
19966;DHT22;10144;50.874;4.762;2022-07-04T09:56:49;32.70;93.50
19966;DHT22;10144;50.874;4.762;2022-07-04T09:59:15;33.40;90.70
19966;DHT22;10144;50.874;4.762;2022-07-04T10:01:41;33.80;90.50
19966;DHT22;10144;50.874;4.762;2022-07-04T10:04:07;34.20;89.20
19966;DHT22;10144;50.874;4.762;2022-07-04T10:06:33;34.50;86.20
19966;DHT22;10144;50.874;4.762;2022-07-04T10:09:13;34.30;85.10
19966;DHT22;10144;50.874;4.762;2022-07-04T10:11:40;34.40;85.60
19966;DHT22;10144;50.874;4.762;2022-07-04T10:14:08;33.40;84.90
19966;DHT22;10144;50.874;4.762;2022-07-04T10:16:34;33.50;88.60
19966;DHT22;10144;50.874;4.762;2022-07-04T10:19:00;33.00;90.20
19966;DHT22;10144;50.874;4.762;2022-07-04T10:21:26;33.40;90.30
19966;DHT22;10144;50.874;4.762;2022-07-04T10:23:52;34.00;88.70
19966;DHT22;10144;50.874;4.762;2022-07-04T10:26:19;34.60;88.00
19966;DHT22;10144;50.874;4.762;2022-07-04T10:28:45;34.90;86.40
19966;DHT22;10144;50.874;4.762;2022-07-04T10:31:14;35.10;80.40
19966;DHT22;10144;50.874;4.762;2022-07-04T10:33:41;35.10;83.50
19966;DHT22;10144;50.874;4.762;2022-07-04T10:36:25;34.90;77.70
19966;DHT22;10144;50.874;4.762;2022-07-04T10:39:00;34.80;76.30
19966;DHT22;10144;50.874;4.762;2022-07-04T10:41:28;34.70;75.60
19966;DHT22;10144;50.874;4.762;2022-07-04T10:43:54;34.10;80.80
19966;DHT22;10144;50.874;4.762;2022-07-04T10:46:53;34.30;81.10
19966;DHT22;10144;50.874;4.762;2022-07-04T10:49:24;34.40;81.00
19966;DHT22;10144;50.874;4.762;2022-07-04T10:54:32;34.30;77.10
19966;DHT22;10144;50.874;4.762;2022-07-04T10:59:37;33.80;84.20
19966;DHT22;10144;50.874;4.762;2022-07-04T11:07:15;33.70;82.10
19966;DHT22;10144;50.874;4.762;2022-07-04T11:09:41;33.90;80.50
19966;DHT22;10144;50.874;4.762;2022-07-04T11:12:08;33.20;79.30
19966;DHT22;10144;50.874;4.762;2022-07-04T11:14:42;32.40;80.50
19966;DHT22;10144;50.874;4.762;2022-07-04T11:17:22;31.30;80.60
19966;DHT22;10144;50.874;4.762;2022-07-04T11:20:03;30.90;82.70
19966;DHT22;10144;50.874;4.762;2022-07-04T11:22:29;31.10;84.30
19966;DHT22;10144;50.874;4.762;2022-07-04T11:24:55;31.10;82.90
19966;DHT22;10144;50.874;4.762;2022-07-04T11:27:22;30.50;84.50
19966;DHT22;10144;50.874;4.762;2022-07-04T11:29:54;30.40;87.80
19966;DHT22;10144;50.874;4.762;2022-07-04T11:32:21;30.80;90.00
19966;DHT22;10144;50.874;4.762;2022-07-04T11:34:55;31.00;88.90
19966;DHT22;10144;50.874;4.762;2022-07-04T11:37:21;30.90;83.60
19966;DHT22;10144;50.874;4.762;2022-07-04T11:39:54;31.00;87.90
19966;DHT22;10144;50.874;4.762;2022-07-04T11:42:39;31.20;90.90
19966;DHT22;10144;50.874;4.762;2022-07-04T11:45:23;31.70;87.30
19966;DHT22;10144;50.874;4.762;2022-07-04T11:47:49;32.10;85.50
19966;DHT22;10144;50.874;4.762;2022-07-04T11:50:16;32.10;87.70
19966;DHT22;10144;50.874;4.762;2022-07-04T11:52:49;31.70;89.20
19966;DHT22;10144;50.874;4.762;2022-07-04T11:55:19;31.20;85.70
19966;DHT22;10144;50.874;4.762;2022-07-04T11:57:50;30.60;84.50
19966;DHT22;10144;50.874;4.762;2022-07-04T12:00:25;30.00;88.40
19966;DHT22;10144;50.874;4.762;2022-07-04T12:02:52;29.20;87.60
19966;DHT22;10144;50.874;4.762;2022-07-04T12:05:18;28.90;91.80
19966;DHT22;10144;50.874;4.762;2022-07-04T12:07:47;29.00;91.30
19966;DHT22;10144;50.874;4.762;2022-07-04T12:10:18;29.00;90.20
19966;DHT22;10144;50.874;4.762;2022-07-04T12:12:52;28.80;89.20
19966;DHT22;10144;50.874;4.762;2022-07-04T12:15:18;28.80;90.70
19966;DHT22;10144;50.874;4.762;2022-07-04T12:17:44;28.80;91.20
19966;DHT22;10144;50.874;4.762;2022-07-04T12:20:15;29.10;93.00
19966;DHT22;10144;50.874;4.762;2022-07-04T12:22:48;29.00;92.50
19966;DHT22;10144;50.874;4.762;2022-07-04T12:25:36;28.90;91.60
19966;DHT22;10144;50.874;4.762;2022-07-04T12:28:08;28.60;91.30
19966;DHT22;10144;50.874;4.762;2022-07-04T12:30:36;28.30;91.30
19966;DHT22;10144;50.874;4.762;2022-07-04T12:33:04;28.10;93.00
19966;DHT22;10144;50.874;4.762;2022-07-04T12:35:43;28.30;94.00
19966;DHT22;10144;50.874;4.762;2022-07-04T12:38:34;28.70;95.60
19966;DHT22;10144;50.874;4.762;2022-07-04T12:41:04;29.20;93.10
19966;DHT22;10144;50.874;4.762;2022-07-04T12:46:11;30.30;91.70
19966;DHT22;10144;50.874;4.762;2022-07-04T12:48:38;30.30;90.20
19966;DHT22;10144;50.874;4.762;2022-07-04T12:51:14;30.20;91.10
19966;DHT22;10144;50.874;4.762;2022-07-04T12:53:42;30.20;88.90
19966;DHT22;10144;50.874;4.762;2022-07-04T12:56:15;30.30;89.40
19966;DHT22;10144;50.874;4.762;2022-07-04T12:58:52;30.00;90.00
19966;DHT22;10144;50.874;4.762;2022-07-04T13:01:18;29.60;92.60
19966;DHT22;10144;50.874;4.762;2022-07-04T13:03:43;29.30;92.60
19966;DHT22;10144;50.874;4.762;2022-07-04T13:06:09;29.30;92.90
19966;DHT22;10144;50.874;4.762;2022-07-04T13:08:35;29.40;92.10
19966;DHT22;10144;50.874;4.762;2022-07-04T13:11:00;29.20;92.80
19966;DHT22;10144;50.874;4.762;2022-07-04T13:13:45;29.20;93.70
19966;DHT22;10144;50.874;4.762;2022-07-04T13:16:11;29.00;92.80
19966;DHT22;10144;50.874;4.762;2022-07-04T13:18:36;28.90;91.30
19966;DHT22;10144;50.874;4.762;2022-07-04T13:21:02;28.80;93.10
19966;DHT22;10144;50.874;4.762;2022-07-04T13:23:28;28.70;94.00
19966;DHT22;10144;50.874;4.762;2022-07-04T13:25:53;28.70;92.30
19966;DHT22;10144;50.874;4.762;2022-07-04T13:28:19;28.70;93.00
19966;DHT22;10144;50.874;4.762;2022-07-04T13:30:45;28.20;93.00
19966;DHT22;10144;50.874;4.762;2022-07-04T13:33:10;28.00;92.70
19966;DHT22;10144;50.874;4.762;2022-07-04T13:35:36;27.90;94.70
19966;DHT22;10144;50.874;4.762;2022-07-04T13:38:02;28.00;96.20
19966;DHT22;10144;50.874;4.762;2022-07-04T13:40:28;28.10;95.10
19966;DHT22;10144;50.874;4.762;2022-07-04T13:42:53;28.30;92.90
19966;DHT22;10144;50.874;4.762;2022-07-04T13:45:22;28.40;95.90
19966;DHT22;10144;50.874;4.762;2022-07-04T13:47:48;28.50;94.40
19966;DHT22;10144;50.874;4.762;2022-07-04T13:50:13;28.40;93.00
19966;DHT22;10144;50.874;4.762;2022-07-04T13:52:41;28.30;92.10
19966;DHT22;10144;50.874;4.762;2022-07-04T13:55:07;28.20;94.60
19966;DHT22;10144;50.874;4.762;2022-07-04T13:57:32;28.00;92.70
19966;DHT22;10144;50.874;4.762;2022-07-04T13:59:58;27.90;94.90
19966;DHT22;10144;50.874;4.762;2022-07-04T14:02:24;27.90;94.90
19966;DHT22;10144;50.874;4.762;2022-07-04T14:04:50;27.80;94.30
19966;DHT22;10144;50.874;4.762;2022-07-04T14:07:15;27.90;95.50
19966;DHT22;10144;50.874;4.762;2022-07-04T14:09:41;27.90;94.40
19966;DHT22;10144;50.874;4.762;2022-07-04T14:12:07;27.90;94.00
19966;DHT22;10144;50.874;4.762;2022-07-04T14:14:33;28.00;96.60
19966;DHT22;10144;50.874;4.762;2022-07-04T14:16:59;27.90;96.20
19966;DHT22;10144;50.874;4.762;2022-07-04T14:19:25;28.00;96.40
19966;DHT22;10144;50.874;4.762;2022-07-04T14:21:50;28.10;96.80
19966;DHT22;10144;50.874;4.762;2022-07-04T14:24:17;28.40;95.30
19966;DHT22;10144;50.874;4.762;2022-07-04T14:26:43;28.40;95.10
19966;DHT22;10144;50.874;4.762;2022-07-04T14:29:09;28.30;92.90
19966;DHT22;10144;50.874;4.762;2022-07-04T14:31:34;28.30;94.30
19966;DHT22;10144;50.874;4.762;2022-07-04T14:34:00;28.40;94.70
19966;DHT22;10144;50.874;4.762;2022-07-04T14:36:27;28.40;94.50
19966;DHT22;10144;50.874;4.762;2022-07-04T14:38:53;28.40;93.30
19966;DHT22;10144;50.874;4.762;2022-07-04T14:41:22;28.30;93.30
19966;DHT22;10144;50.874;4.762;2022-07-04T14:43:47;28.20;93.10
19966;DHT22;10144;50.874;4.762;2022-07-04T14:46:13;28.10;94.20
19966;DHT22;10144;50.874;4.762;2022-07-04T14:48:39;28.10;94.50
19966;DHT22;10144;50.874;4.762;2022-07-04T14:51:04;28.00;93.60
19966;DHT22;10144;50.874;4.762;2022-07-04T14:53:31;27.90;93.10
19966;DHT22;10144;50.874;4.762;2022-07-04T14:55:57;27.90;93.10
19966;DHT22;10144;50.874;4.762;2022-07-04T14:58:22;28.00;93.70
19966;DHT22;10144;50.874;4.762;2022-07-04T15:00:48;28.10;90.90
19966;DHT22;10144;50.874;4.762;2022-07-04T15:03:14;28.10;90.60
19966;DHT22;10144;50.874;4.762;2022-07-04T15:05:39;28.00;92.20
19966;DHT22;10144;50.874;4.762;2022-07-04T15:08:06;27.80;93.00
19966;DHT22;10144;50.874;4.762;2022-07-04T15:10:32;27.70;92.80
19966;DHT22;10144;50.874;4.762;2022-07-04T15:12:58;27.60;93.70
19966;DHT22;10144;50.874;4.762;2022-07-04T15:15:24;27.60;93.20
19966;DHT22;10144;50.874;4.762;2022-07-04T15:17:53;27.50;92.50
19966;DHT22;10144;50.874;4.762;2022-07-04T15:20:19;27.50;92.90
19966;DHT22;10144;50.874;4.762;2022-07-04T15:23:03;27.40;94.60
19966;DHT22;10144;50.874;4.762;2022-07-04T15:25:47;27.40;94.70
19966;DHT22;10144;50.874;4.762;2022-07-04T15:28:12;27.50;94.80
19966;DHT22;10144;50.874;4.762;2022-07-04T15:30:40;27.50;94.70
19966;DHT22;10144;50.874;4.762;2022-07-04T15:33:05;27.50;94.40
19966;DHT22;10144;50.874;4.762;2022-07-04T15:35:32;27.50;93.50
19966;DHT22;10144;50.874;4.762;2022-07-04T15:37:58;27.50;92.30
19966;DHT22;10144;50.874;4.762;2022-07-04T15:40:23;27.60;92.70
19966;DHT22;10144;50.874;4.762;2022-07-04T15:42:49;27.40;94.80
19966;DHT22;10144;50.874;4.762;2022-07-04T15:45:15;27.50;94.50
19966;DHT22;10144;50.874;4.762;2022-07-04T15:47:41;27.40;94.80
19966;DHT22;10144;50.874;4.762;2022-07-04T15:50:08;27.30;94.50
19966;DHT22;10144;50.874;4.762;2022-07-04T15:52:33;27.30;94.30
19966;DHT22;10144;50.874;4.762;2022-07-04T15:54:59;27.30;94.50
19966;DHT22;10144;50.874;4.762;2022-07-04T15:57:25;27.10;94.70
19966;DHT22;10144;50.874;4.762;2022-07-04T15:59:50;27.00;95.60
19966;DHT22;10144;50.874;4.762;2022-07-04T16:02:16;26.90;96.60
19966;DHT22;10144;50.874;4.762;2022-07-04T16:04:42;26.80;95.80